Flight Track Log - Related Links

Times and Time Zones

All times are in EDT time to prevent confusion due to time zone crossing. See the AAL1612 flight status page for this flight to view local times or setup timezone preferences in your user account.

Time Position Orientation Groundspeed Altitude Reporting Facility
EDT Latitude Longitude Course Direction KTS MPH feet Rate Location/Type
Fri 01:01:10 PM 37.6500 -122.3500 58° Northeast 169 194 1,400  Level Northern Cal TRACON
Fri 01:02:10 PM 37.6833 -122.2830 46° Northeast 241 277 3,700 2,678 Climbing Northern Cal TRACON
Fri 01:03:11 PM 37.7333 -122.2170 38° Northeast 265 305 6,800 3,000 Climbing Northern Cal TRACON
Fri 01:04:12 PM 37.8000 -122.1500 32° Northeast 289 333 9,800 2,479 Climbing Northern Cal TRACON
Fri 01:05:12 PM 37.8833 -122.0830 40° Northeast 336 387 11,800 2,162 Climbing Northern Cal TRACON
Fri 01:05:28 PM 37.8933 -122.0660 38° Northeast 37,000 2,289 Climbing Oakland Center
Fri 01:06:28 PM 37.9714 -121.9880 35° Northeast 440 506 14,700 -9,850 Descending Oakland Center
Fri 01:07:28 PM 38.0636 -121.9070 36° Northeast 411 473 17,300 2,479 Climbing Oakland Center
Fri 01:08:29 PM 38.1542 -121.8240 37° Northeast 405 466 19,700 2,350 Climbing Oakland Center
Fri 01:09:28 PM 38.2464 -121.7350 36° Northeast 405 466 22,000 2,218 Climbing Oakland Center
Fri 01:10:28 PM 38.3472 -121.6430 38° Northeast 416 479 24,100 2,118 Climbing Oakland Center
Fri 01:11:27 PM 38.4478 -121.5410 53° Northeast 437 503 26,200 1,966 Climbing Oakland Center
Fri 01:12:27 PM 38.5317 -121.3980 54° Northeast 465 535 28,000 1,884 Climbing Oakland Center
Fri 01:13:28 PM 38.6136 -121.2550 51° Northeast 478 550 30,000 2,182 Climbing Oakland Center
Fri 01:14:28 PM 38.7075 -121.1040 54° Northeast 488 562 32,400 2,100 Climbing Oakland Center
Fri 01:15:28 PM 38.7869 -120.9630 54° Northeast 488 562 34,200 1,300 Climbing Oakland Center
Fri 01:16:28 PM 38.8661 -120.8240 52° Northeast 488 562 35,000 403 Climbing Oakland Center
Fri 01:17:27 PM 38.9492 -120.6850 54° Northeast 483 556 35,000  Level Oakland Center
Fri 01:18:28 PM 39.0303 -120.5430 54° Northeast 483 556 35,000  Level Oakland Center
Fri 01:19:28 PM 39.1108 -120.4010 53° Northeast 483 556 35,000  Level Oakland Center
Fri 01:20:27 PM 39.1914 -120.2630 54° Northeast 483 556 35,000  Level Oakland Center
Fri 01:21:28 PM 39.2575 -120.1470 55° Northeast 483 556 35,000  Level Oakland Center
Fri 01:22:28 PM 39.3478 -119.9830 54° Northeast 477 549 35,000  Level Oakland Center
Fri 01:23:27 PM 39.4300 -119.8390 54° Northeast 482 555 35,000  Level Oakland Center
Fri 01:24:28 PM 39.5097 -119.6980 54° Northeast 482 555 35,000  Level Oakland Center
Fri 01:25:28 PM 39.5894 -119.5540 54° Northeast 482 555 35,000  Level Oakland Center
Fri 01:26:28 PM 39.6692 -119.4120 54° Northeast 482 555 35,000  Level Oakland Center
Fri 01:27:27 PM 39.7506 -119.2670 55° Northeast 482 555 35,000  Level Oakland Center
Fri 01:28:28 PM 39.8294 -119.1220 55° Northeast 482 555 35,000  Level Oakland Center
Fri 01:29:27 PM 39.9083 -118.9730 65° Northeast 487 560 35,000  Level Oakland Center
Fri 01:30:29 PM 39.9683 -118.8080 67° East 484 557 35,000  Level Salt Lake Center
Fri 01:31:29 PM 40.0242 -118.6390 66° East 502 578 35,000  Level Salt Lake Center
Fri 01:32:29 PM 40.0792 -118.4770 67° East 502 578 35,000  Level Salt Lake Center
Fri 01:33:29 PM 40.1322 -118.3120 67° East 502 578 35,000  Level Salt Lake Center
Fri 01:34:29 PM 40.1822 -118.1570 67° East 502 578 35,000  Level Salt Lake Center
Fri 01:35:29 PM 40.2403 -117.9730 67° East 497 572 35,000  Level Salt Lake Center
Fri 01:36:29 PM 40.2944 -117.8070 68° East 497 572 35,000  Level Salt Lake Center
Fri 01:37:29 PM 40.3467 -117.6380 68° East 503 579 35,000  Level Salt Lake Center
Fri 01:38:29 PM 40.3958 -117.4820 67° East 503 579 35,000  Level Salt Lake Center
Fri 01:39:29 PM 40.4494 -117.3160 67° East 503 579 35,000  Level Salt Lake Center
Fri 01:40:29 PM 40.5081 -117.1300 67° East 503 579 35,000  Level Salt Lake Center
Fri 01:41:29 PM 40.5639 -116.9550 70° East 503 579 35,000 -300 Level Salt Lake Center
Fri 01:42:29 PM 40.6108 -116.7820 67° East 503 579 34,400 -1,800 Descending Salt Lake Center
Fri 01:43:29 PM 40.6608 -116.6270 48° Northeast 498 573 31,400 -2,500 Descending Salt Lake Center
Fri 01:44:29 PM 40.7511 -116.4930 65° Northeast 486 559 29,400 -1,150 Descending Salt Lake Center
Fri 01:45:29 PM 40.8142 -116.3170 73° East 486 559 29,100 300 Descending Salt Lake Center
Fri 01:46:29 PM 40.8539 -116.1450 73° East 489 563 30,000 1,500 Climbing Salt Lake Center
Fri 01:47:29 PM 40.8958 -115.9640 74° East 508 585 32,100 1,950 Climbing Salt Lake Center
Fri 01:48:29 PM 40.9325 -115.7990 73° East 514 592 33,900 1,450 Climbing Salt Lake Center
Fri 01:49:29 PM 40.9789 -115.6020 73° East 507 583 35,000 550 Climbing Salt Lake Center
Fri 01:50:29 PM 41.0197 -115.4230 74° East 507 583 35,000  Level Salt Lake Center
Fri 01:51:29 PM 41.0581 -115.2500 73° East 502 578 35,000 -900 Level Salt Lake Center
Fri 01:52:29 PM 41.0958 -115.0870 79° East 507 583 33,200 -3,100 Descending Salt Lake Center
Fri 01:53:29 PM 41.1242 -114.8900 101° East 507 583 28,800 -3,650 Descending Salt Lake Center
Fri 01:54:29 PM 41.1006 -114.7340 117° Southeast 484 557 25,900 -3,900 Descending Salt Lake Center
Fri 01:55:29 PM 41.0353 -114.5680 93° East 461 531 21,000 -4,450 Descending Salt Lake Center
Fri 01:56:29 PM 41.0281 -114.4080 81° East 452 520 17,000 -3,650 Descending Salt Lake Center
Fri 01:57:29 PM 41.0483 -114.2300 74° East 442 509 13,700 -1,900 Descending Salt Lake Center
Fri 01:58:29 PM 41.0800 -114.0830 83° East 432 497 13,200 -250 Descending Salt Lake Center
Fri 01:59:29 PM 41.0922 -113.9510 80° East 382 440 13,200  Level Salt Lake Center
Fri 02:00:29 PM 41.1106 -113.8170 84° East 368 423 13,200 -250 Level Salt Lake Center
Fri 02:01:29 PM 41.1206 -113.6830 85° East 368 423 12,700 -600 Descending Salt Lake Center
Fri 02:02:29 PM 41.1300 -113.5480 84° East 368 423 12,000 -750 Descending Salt Lake Center
Fri 02:03:29 PM 41.1394 -113.4190 84° East 362 417 11,200 -500 Descending Salt Lake Center
Fri 02:04:29 PM 41.1489 -113.2890 86° East 357 411 11,000 -100 Descending Salt Lake Center
Fri 02:05:29 PM 41.1558 -113.1580 84° East 357 411 11,000  Level Salt Lake Center
Fri 02:06:29 PM 41.1647 -113.0390 85° East 352 405 11,000  Level Salt Lake Center
Fri 02:07:29 PM 41.1736 -112.9040 85° East 352 405 11,000  Level Salt Lake Center
Fri 02:08:29 PM 41.1822 -112.7750 85° East 357 411 11,000 -450 Level Salt Lake Center
Fri 02:09:29 PM 41.1908 -112.6510 85° East 347 399 10,100 -750 Descending Salt Lake Center
Fri 02:10:29 PM 41.1992 -112.5300 83° East 332 382 9,500 -550 Descending Salt Lake Center
Fri 02:11:29 PM 41.2089 -112.4250 105° East 300 345 9,000 -600 Descending Salt Lake Center
Fri 02:12:29 PM 41.1878 -112.3200 115° Southeast 270 311 8,300 -900 Descending Salt Lake Center
Fri 02:13:29 PM 41.1575 -112.2330 121° Southeast 259 298 7,200 -650 Descending Salt Lake Center
Fri 02:14:29 PM 41.1231 -112.1560 134° Southeast 254 292 7,000 -50 Descending Salt Lake Center
Fri 02:15:29 PM 41.0761 -112.0910 146° Southeast 248 285 7,100 -400 Climbing Salt Lake Center
Fri 02:16:29 PM 41.0286 -112.0490 156° South 223 257 6,200 -550 Descending Salt Lake Center
Fri 02:17:29 PM 40.9789 -112.0200 173° South 200 230 6,000 -100 Descending Salt Lake Center
Fri 02:18:29 PM 40.9228 -112.0110 174° South 195 224 6,000 -300 Level Salt Lake Center
Fri 02:19:29 PM 40.8728 -112.0040 174° South 195 224 5,400 -600 Descending Salt Lake Center

Login

Don't have an account? Register now (free) for customized features, flight alerts, and more!